createdAt,value
2019-05-09T00:00:09.180Z,74
2019-05-09T00:15:09.329Z,73.3
2019-05-09T00:30:09.778Z,72.1
2019-05-09T00:45:09.891Z,71.1
2019-05-09T01:00:09.927Z,72.2
2019-05-09T01:15:09.915Z,73.3
2019-05-09T01:30:13.811Z,75
2019-05-09T01:45:11.297Z,77.3
2019-05-09T02:00:13.545Z,76.7
2019-05-09T02:15:13.347Z,75.4
2019-05-09T02:30:15.862Z,77.9
2019-05-09T02:45:11.283Z,77.7
2019-05-09T03:00:11.785Z,78.1
2019-05-09T03:15:11.402Z,79.8
2019-05-09T03:30:03.166Z,79.4
2019-05-09T03:45:03.412Z,78.8
2019-05-09T04:00:03.411Z,79.7
2019-05-09T04:15:05.009Z,79.5
2019-05-09T04:30:09.307Z,79.6
2019-05-09T04:45:13.022Z,79.4
2019-05-09T05:00:04.015Z,81.1
2019-05-09T05:15:04.018Z,78.9
2019-05-09T05:30:07.917Z,78.7
2019-05-09T05:45:08.413Z,78.9
2019-05-09T06:00:12.808Z,78.8
2019-05-09T06:15:12.874Z,79
2019-05-09T06:30:12.922Z,77.6
2019-05-09T06:45:12.941Z,77.5
2019-05-09T07:00:08.707Z,73.5
2019-05-09T07:15:09.211Z,65
2019-05-09T07:30:08.082Z,59.9
2019-05-09T07:45:09.300Z,56.7
2019-05-09T08:00:08.154Z,54.6
2019-05-09T08:15:20.397Z,55.2
2019-05-09T08:30:08.465Z,52.8
2019-05-09T08:45:30.957Z,51.5
2019-05-09T09:00:08.523Z,47.8
2019-05-09T09:15:08.162Z,46.6
2019-05-09T09:30:25.334Z,40.6
2019-05-09T09:45:08.230Z,42.9
2019-05-09T10:00:08.249Z,41.9
2019-05-09T10:15:08.787Z,45.9
2019-05-09T10:30:09.433Z,48.1
2019-05-09T10:45:07.904Z,59
2019-05-09T11:00:09.219Z,58.2
2019-05-09T11:15:09.481Z,54
2019-05-09T11:30:08.695Z,51.3
2019-05-09T11:45:08.195Z,51.5
2019-05-09T12:00:08.833Z,47.8
2019-05-09T12:15:09.192Z,47.8
2019-05-09T12:30:08.200Z,47.7
2019-05-09T12:45:08.770Z,46.2
2019-05-09T13:00:08.467Z,45.2
2019-05-09T13:15:09.263Z,44.2
2019-05-09T13:30:08.735Z,45.3
2019-05-09T13:45:08.686Z,58.8
2019-05-09T14:00:09.196Z,54.6
2019-05-09T14:15:08.851Z,57
2019-05-09T14:30:08.559Z,56.2
2019-05-09T14:45:08.790Z,56.4
2019-05-09T15:00:09.102Z,53.9
2019-05-09T15:15:08.749Z,53.6
2019-05-09T15:30:08.814Z,52.1
2019-05-09T15:45:09.008Z,50.6
2019-05-09T16:00:09.164Z,50.1
2019-05-09T16:15:09.174Z,49.8
2019-05-09T16:30:10.639Z,56.7
2019-05-09T16:45:10.171Z,55.8
2019-05-09T17:00:10.223Z,55.4
2019-05-09T17:15:10.308Z,54
2019-05-09T17:30:10.372Z,55.4
2019-05-09T17:45:10.386Z,57.5
2019-05-09T18:00:10.418Z,59.4
2019-05-09T18:15:10.419Z,60.4
2019-05-09T18:30:10.537Z,59.4
2019-05-09T18:45:10.518Z,60.5
2019-05-09T19:00:10.536Z,63.1
2019-05-09T19:15:10.607Z,68.8
2019-05-09T19:30:10.693Z,70.1
2019-05-09T19:45:10.672Z,72.3
2019-05-09T20:00:10.730Z,73.7
2019-05-09T20:15:10.768Z,76.6
2019-05-09T20:30:10.873Z,79.9
2019-05-09T20:45:10.835Z,80.2
2019-05-09T21:00:10.877Z,78.8
2019-05-09T21:15:10.901Z,82.3
2019-05-09T21:30:10.982Z,81.1
2019-05-09T21:45:11.065Z,78.4
2019-05-09T22:00:11.113Z,78.8
2019-05-09T22:15:11.092Z,80.1
2019-05-09T22:30:11.193Z,80.4
2019-05-09T22:45:11.324Z,80
2019-05-09T23:00:11.429Z,79.5
2019-05-09T23:15:11.251Z,80
2019-05-09T23:30:11.323Z,79.2
2019-05-09T23:45:11.894Z,78.3
